CST,Max TemperatureF,Mean TemperatureF,Min TemperatureF,Max Dew PointF,MeanDew PointF,Min DewpointF,Max Humidity, Mean Humidity, Min Humidity, Max Sea Level PressureIn, Mean Sea Level PressureIn, Min Sea Level PressureIn, Max VisibilityMiles, Mean VisibilityMiles, Min VisibilityMiles, Max Wind SpeedMPH, Mean Wind SpeedMPH, Max Gust SpeedMPH,PrecipitationIn, CloudCover, Events, WindDirDegrees
2013-2-1,5,-8,-20,0,-11,-26,92,82,70,30.19,30.04,29.93,10,8,1,16,8,,0.02,5,Snow,202
2013-2-2,12,6,0,9,1,-4,92,87,78,30.11,30.01,29.87,10,8,0,24,10,32,0.05,7,Rain-Snow,240
2013-2-3,8,3,-2,5,1,-4,100,86,78,30.04,29.99,29.94,10,8,2,16,11,22,0.09,7,Snow,70
2013-2-4,28,14,0,27,10,-2,100,92,78,30.00,29.77,29.52,10,9,2,24,10,29,0.00,6,Snow,211
2013-2-5,28,17,6,28,10,5,100,89,79,29.98,29.88,29.55,10,9,1,23,12,23,0.57,8,Rain-Snow,354
2013-2-6,17,16,12,18,15,10,100,98,92,30.08,29.90,29.81,10,8,2,21,10,24,0.07,8,Snow,94
2013-2-7,15,10,5,16,11,3,100,96,86,30.23,30.19,30.09,10,7,0,15,10,21,0.00,7,Fog-Snow,83
2013-2-8,23,18,14,23,18,14,100,100,100,30.23,30.09,29.94,10,5,0,25,13,31,0.00,7,Fog-Snow,161
2013-2-9,24,22,21,25,23,21,100,100,100,29.93,29.87,29.82,7,3,0,14,6,,0.00,8,Fog,150
2013-2-10,24,22,19,25,24,19,100,100,100,29.82,29.70,29.58,3,1,0,32,16,40,11.34,8,Fog-Rain-Snow,22
2013-2-11,19,16,12,19,17,10,100,94,86,29.96,29.89,29.76,10,8,1,31,22,39,0.63,7,Rain-Snow,309
2013-2-12,28,19,10,27,19,9,100,93,86,29.82,29.76,29.71,10,10,10,18,14,25,0.00,3,,269
2013-2-13,28,21,14,28,22,14,100,100,93,29.77,29.65,29.56,10,7,1,15,9,,1.59,4,Rain-Snow,309
2013-2-14,19,8,-2,19,8,-4,100,91,79,30.23,30.05,29.77,10,9,2,18,11,21,0.16,4,Rain-Snow,342
2013-2-15,14,0,-13,14,-2,-17,100,91,84,30.33,30.26,30.15,10,8,0,14,6,,0.01,3,Fog-Rain-Snow,283
2013-2-16,19,8,-2,19,8,-6,100,96,85,30.14,29.98,29.83,10,10,7,17,8,,0.00,6,Snow,159
2013-2-17,32,26,19,32,26,19,100,99,87,29.82,29.56,29.43,10,7,2,24,17,30,0.25,5,Rain-Snow,191
2013-2-18,32,14,-5,32,6,-11,100,92,77,30.15,29.83,29.45,8,2,0,38,26,47,1.52,8,Rain-Snow,343
2013-2-19,0,-6,-13,-6,-14,-18,84,76,70,30.43,30.32,30.15,10,10,6,29,20,32,0.00,2,,353
2013-2-20,3,-6,-16,0,-10,-20,92,80,70,30.42,30.35,30.26,10,10,10,17,9,,0.00,2,,110
2013-2-21,10,6,3,9,3,0,92,83,73,30.30,30.24,30.13,10,10,10,22,14,26,0.00,4,,130
2013-2-22,19,10,1,12,6,0,100,83,63,30.12,29.98,29.87,10,10,10,9,6,,0.00,4,,359
2013-2-23,23,10,-4,19,6,-9,100,93,78,29.87,29.82,29.78,10,8,0,12,5,,0.00,0,Fog-Snow,159
2013-2-24,28,14,1,28,14,0,100,97,85,30.01,29.94,29.88,10,8,2,15,8,,0.00,4,Rain-Snow,230
2013-2-25,32,16,0,27,14,0,100,91,75,30.02,29.97,29.92,10,9,4,16,8,,0.00,0,,208
2013-2-26,24,14,5,21,13,1,100,95,80,30.05,29.98,29.92,10,8,0,10,6,,0.00,0,Fog-Snow,194
2013-2-27,28,18,8,27,18,7,100,95,86,30.20,30.13,30.06,10,10,8,25,12,25,0.00,2,,345
2013-2-28,24,16,8,21,16,9,100,93,80,30.29,30.25,30.20,10,10,10,15,9,,0.00,5,,359